Portada
METAR-TAF:

METAR-TAF

Aeroports :

Katherine, Austràlia

latitud: 14-26S, longitud: 132-16E, altitud: 108 m

Observació

L'informe es va fer fa 20 minuts, a les 13:00 UTC
Vent 5 kt del Sud-Est
Temperatura 18°C
Humitat 56%
Pressió 1013 hPa
Visibilitat 10 km o més

METAR: YPTN 141300Z AUTO 14005KT 9999 // NCD 18/09 Q1013 RF00.0/000.0

Hora: 22:50 (13:20 UTC)

Pronòstic

L'informe es va fer fa 2 hores i 9 minuts, a les 11:11 UTC
Pronòstic vàlid del 14 a les 12 UTC al 15 a les 12 UTC
Vent 6 kt del Sud-Est
Visibilitat 10 km o més
sense núvols per sota de 1500 mi sense presència de cumulonimbus.
A partir de les 15 a les 0000 UTC
Vent 12 kt del Est/Sud-Est
Visibilitat 10 km o més
sense núvols per sota de 1500 mi sense presència de cumulonimbus.
A partir de les 15 a les 0900 UTC
Vent 5 kt del Sud-Est
Visibilitat 10 km o més
sense núvols per sota de 1500 mi sense presència de cumulonimbus.

TAF: YPTN 141111Z 1412/1512 14006KT CAVOK FM150000 12012KT CAVOK FM150900 14005KT CAVOK

Observacions i pronòstics meteorològics de més de 4000 aeroports (METAR i TAF).

Les estacions disponibles són els punts grocs i vermells al mapa.

Posi el ratolí al punt desitjat per veure el nom de l'estació.

Feu clic per veure les observacions i els pronòstics meteorològics.

Per canviar el mapa: feu clic els botons verds amb una creu de color negre per apropar; al botó verd amb un guió per allunyar la imatge; o en les fletxes verdes per a mapes adjacents.


METAR-TAF: